Time;durP1;ratioP1;P1;durP2;ratioP2;P2;SDS_P1;SDS_P2;PMS_P1;PMS_P2;Temp;Humidity;BMP_temperature;BMP_pressure;BME280_temperature;BME280_humidity;BME280_pressure;Samples;Min_cycle;Max_cycle;Signal;HPM_P1;HPM_P2
2021/04/19 00:00:19;;;;;;;28.50;20.60;;;11.40;57.80;;;;;;5128756;27;20033;-69
2021/04/19 00:02:46;;;;;;;26.65;20.15;;;11.40;57.80;;;;;;5120302;27;20035;-69
2021/04/19 00:05:14;;;;;;;31.58;21.05;;;11.50;57.60;;;;;;5123727;27;20046;-70
2021/04/19 00:07:40;;;;;;;29.58;20.48;;;11.40;57.40;;;;;;5131893;27;20039;-69
2021/04/19 00:10:08;;;;;;;27.30;19.60;;;11.40;57.20;;;;;;5131011;27;20051;-69
2021/04/19 00:12:35;;;;;;;27.88;19.42;;;11.40;57.10;;;;;;5133672;27;20023;-69
2021/04/19 00:15:01;;;;;;;29.48;19.23;;;11.50;57.10;;;;;;5133531;27;20027;-69
2021/04/19 00:17:27;;;;;;;24.33;18.13;;;11.40;57.70;;;;;;5119026;27;20029;-69
2021/04/19 00:19:53;;;;;;;26.58;16.42;;;11.50;57.00;;;;;;5113214;28;20354;-69
2021/04/19 00:22:19;;;;;;;25.05;17.90;;;11.50;56.90;;;;;;5128704;27;20158;-69
2021/04/19 00:24:44;;;;;;;26.50;19.13;;;11.50;57.00;;;;;;5113036;28;20028;-69
2021/04/19 00:27:10;;;;;;;28.27;20.25;;;11.50;57.10;;;;;;5124345;27;20117;-69
2021/04/19 00:29:36;;;;;;;25.52;18.25;;;11.50;57.20;;;;;;5131860;27;20033;-69
2021/04/19 00:32:02;;;;;;;27.42;17.83;;;11.50;57.00;;;;;;5132037;27;20057;-69
2021/04/19 00:34:28;;;;;;;22.20;16.73;;;11.40;57.00;;;;;;5133180;27;20052;-69
2021/04/19 00:36:54;;;;;;;21.38;15.52;;;11.40;56.80;;;;;;5133430;27;20473;-69
2021/04/19 00:39:20;;;;;;;22.55;16.65;;;11.40;56.70;;;;;;5126688;27;20020;-69
2021/04/19 00:41:46;;;;;;;22.73;17.02;;;11.40;56.70;;;;;;5133256;27;20477;-69
2021/04/19 00:44:12;;;;;;;27.15;17.98;;;11.40;56.70;;;;;;5133325;27;20499;-69
2021/04/19 00:46:38;;;;;;;24.10;18.02;;;11.40;56.70;;;;;;5132968;27;20034;-69
2021/04/19 00:49:05;;;;;;;26.63;16.98;;;11.40;56.70;;;;;;5132591;27;20474;-70
2021/04/19 00:51:30;;;;;;;23.90;16.30;;;11.30;56.60;;;;;;5132964;27;20114;-69
2021/04/19 00:53:56;;;;;;;24.20;17.70;;;11.30;56.70;;;;;;5133376;27;20103;-69
2021/04/19 00:56:23;;;;;;;24.60;17.83;;;11.30;56.70;;;;;;5133064;27;20133;-69
2021/04/19 00:58:49;;;;;;;23.33;16.05;;;11.30;56.70;;;;;;5126098;27;20020;-69
2021/04/19 01:01:15;;;;;;;27.35;17.98;;;11.40;56.70;;;;;;5137542;27;20476;-69
2021/04/19 01:03:42;;;;;;;22.13;16.45;;;11.30;56.70;;;;;;5138029;27;20034;-69
2021/04/19 01:06:09;;;;;;;22.40;16.88;;;11.30;56.60;;;;;;5136057;27;20488;-69
2021/04/19 01:08:35;;;;;;;24.25;16.75;;;11.30;56.70;;;;;;5119327;27;20019;-69
2021/04/19 01:11:01;;;;;;;24.05;17.25;;;11.40;57.40;;;;;;5136919;27;20027;-69
2021/04/19 01:13:27;;;;;;;19.85;14.90;;;11.30;56.80;;;;;;5138173;27;20046;-69
2021/04/19 01:15:53;;;;;;;22.33;15.52;;;11.40;56.90;;;;;;5139714;27;20098;-69
2021/04/19 01:18:19;;;;;;;23.92;17.15;;;11.40;56.90;;;;;;5138938;27;20444;-69
2021/04/19 01:20:50;;;;;;;23.65;16.08;;;11.40;56.90;;;;;;5119254;27;20035;-69
2021/04/19 01:23:17;;;;;;;19.88;15.23;;;11.40;56.90;;;;;;5119180;27;20380;-69
2021/04/19 01:25:43;;;;;;;24.58;17.58;;;11.40;56.80;;;;;;5119475;27;20066;-69
2021/04/19 01:28:10;;;;;;;23.40;16.52;;;11.40;56.80;;;;;;5138476;27;20027;-69
2021/04/19 01:30:39;;;;;;;23.77;17.17;;;11.30;56.70;;;;;;5119831;27;20032;-69
2021/04/19 01:33:06;;;;;;;24.77;16.83;;;11.40;56.80;;;;;;5138526;27;20372;-69
2021/04/19 01:35:32;;;;;;;23.15;16.73;;;11.40;56.80;;;;;;5138523;27;20034;-69
2021/04/19 01:37:57;;;;;;;21.30;16.02;;;11.30;56.70;;;;;;5139721;27;20019;-69
2021/04/19 01:40:23;;;;;;;25.63;16.98;;;11.30;56.70;;;;;;5131911;27;20023;-69
2021/04/19 01:42:49;;;;;;;23.42;16.60;;;11.40;56.80;;;;;;5139411;27;20376;-69
2021/04/19 01:45:17;;;;;;;23.52;16.95;;;11.40;56.80;;;;;;5139438;27;20019;-69
2021/04/19 01:47:44;;;;;;;27.73;17.08;;;11.30;56.80;;;;;;5139468;27;20019;-69
2021/04/19 01:50:16;;;;;;;21.45;16.10;;;11.30;56.80;;;;;;5138849;27;20073;-69
2021/04/19 01:52:42;;;;;;;21.58;16.33;;;11.30;56.80;;;;;;5121949;27;20027;-69
2021/04/19 01:55:12;;;;;;;24.80;15.57;;;11.40;56.90;;;;;;5118879;27;20071;-69
2021/04/19 01:57:41;;;;;;;26.25;17.00;;;11.30;56.80;;;;;;5134193;27;20031;-69
2021/04/19 02:00:09;;;;;;;26.20;15.95;;;11.30;56.80;;;;;;5124061;27;20045;-69
2021/04/19 02:02:55;;;;;;;24.30;17.48;;;11.30;56.90;;;;;;5134742;27;20023;-69
2021/04/19 02:05:35;;;;;;;27.98;17.23;;;11.30;57.00;;;;;;5139207;27;20027;-69
2021/04/19 02:08:22;;;;;;;20.02;16.23;;;11.40;57.00;;;;;;5139209;27;20027;-69
2021/04/19 02:11:08;;;;;;;25.10;18.02;;;11.30;56.90;;;;;;5119424;27;20076;-69
2021/04/19 02:14:18;;;;;;;23.85;17.35;;;11.30;56.90;;;;;;5115603;28;20068;-69
2021/04/19 02:17:18;;;;;;;25.50;16.65;;;11.30;56.90;;;;;;5124493;27;20051;-69
2021/04/19 02:20:01;;;;;;;23.75;17.58;;;11.30;56.90;;;;;;5124269;27;20030;-69
2021/04/19 02:22:42;;;;;;;23.02;16.65;;;11.30;56.90;;;;;;5130330;27;20031;-69
2021/04/19 02:25:51;;;;;;;27.42;17.25;;;11.30;57.10;;;;;;5136086;27;20027;-69
2021/04/19 02:28:29;;;;;;;23.95;16.73;;;11.30;57.10;;;;;;5126406;27;20404;-69
2021/04/19 02:31:01;;;;;;;27.98;16.33;;;11.30;57.10;;;;;;5115524;27;20563;-69
2021/04/19 02:33:32;;;;;;;22.88;17.35;;;11.30;57.10;;;;;;5116185;27;20020;-69
2021/04/19 02:35:58;;;;;;;23.52;17.23;;;11.30;57.20;;;;;;5116499;27;20020;-69
2021/04/19 02:38:28;;;;;;;22.58;16.80;;;11.30;57.20;;;;;;5115252;28;20019;-69
2021/04/19 02:40:56;;;;;;;23.02;17.27;;;11.30;57.30;;;;;;5123485;27;20035;-69
2021/04/19 02:43:22;;;;;;;24.73;17.45;;;11.30;58.00;;;;;;5130904;27;20031;-69
2021/04/19 02:45:51;;;;;;;25.63;19.10;;;11.30;57.60;;;;;;5118197;27;20484;-69
2021/04/19 02:48:21;;;;;;;24.55;17.63;;;11.30;57.70;;;;;;5135467;27;20034;-69
2021/04/19 02:50:47;;;;;;;24.67;17.85;;;11.30;57.70;;;;;;5131413;27;20050;-69
2021/04/19 02:53:13;;;;;;;27.92;17.00;;;11.30;57.70;;;;;;5135445;27;20389;-69
2021/04/19 02:55:40;;;;;;;25.27;17.77;;;11.30;57.70;;;;;;5135186;27;20042;-69
2021/04/19 02:58:09;;;;;;;22.40;16.67;;;11.30;57.90;;;;;;5114895;27;20028;-69
2021/04/19 03:00:47;;;;;;;24.33;17.13;;;11.20;57.90;;;;;;5114948;27;20023;-69
2021/04/19 03:03:20;;;;;;;27.98;17.05;;;11.20;57.80;;;;;;5114706;28;20034;-69
2021/04/19 03:05:47;;;;;;;23.43;16.83;;;11.30;57.90;;;;;;5120438;27;20110;-69
2021/04/19 03:08:18;;;;;;;25.15;17.92;;;11.30;57.80;;;;;;5114474;28;20495;-69
2021/04/19 03:11:01;;;;;;;27.30;18.67;;;11.30;57.90;;;;;;5120559;27;20118;-69
2021/04/19 03:13:30;;;;;;;26.30;18.52;;;11.30;58.00;;;;;;5135092;27;20074;-69
2021/04/19 03:15:58;;;;;;;27.90;19.33;;;11.30;58.00;;;;;;5133069;27;20441;-69
2021/04/19 03:18:24;;;;;;;27.15;16.35;;;11.30;58.00;;;;;;5133659;27;20054;-69
2021/04/19 03:21:07;;;;;;;28.75;18.85;;;11.30;58.00;;;;;;5119836;27;20023;-69
2021/04/19 03:23:36;;;;;;;26.05;19.00;;;11.20;58.00;;;;;;5134402;27;20015;-69
2021/04/19 03:26:04;;;;;;;22.67;17.20;;;11.20;58.00;;;;;;5134372;27;20015;-71
2021/04/19 03:28:33;;;;;;;27.08;18.98;;;11.30;58.10;;;;;;5134209;27;20019;-71
2021/04/19 03:31:03;;;;;;;28.45;19.02;;;11.30;58.20;;;;;;5113752;27;20106;-71
2021/04/19 03:33:30;;;;;;;26.67;18.95;;;11.30;58.20;;;;;;5123794;27;20023;-70
2021/04/19 03:35:56;;;;;;;30.75;21.83;;;11.30;58.20;;;;;;5131752;27;20102;-70
2021/04/19 03:38:23;;;;;;;35.03;22.90;;;11.30;58.30;;;;;;5113515;28;20427;-71
2021/04/19 03:40:51;;;;;;;31.73;21.88;;;11.20;58.30;;;;;;5121056;27;20039;-71
2021/04/19 03:43:21;;;;;;;32.03;22.42;;;11.20;58.30;;;;;;5132556;27;20030;-71
2021/04/19 03:45:52;;;;;;;34.00;23.75;;;11.20;58.40;;;;;;5133973;27;20027;-71
2021/04/19 03:48:21;;;;;;;34.50;24.30;;;11.20;58.40;;;;;;5134169;27;20023;-71
2021/04/19 03:51:00;;;;;;;33.53;23.60;;;11.20;58.40;;;;;;5122043;27;20051;-71
2021/04/19 03:53:28;;;;;;;34.25;22.33;;;11.10;58.30;;;;;;5133525;27;20105;-71
2021/04/19 03:55:54;;;;;;;32.10;21.73;;;11.10;58.30;;;;;;5132282;27;20027;-71
2021/04/19 03:58:23;;;;;;;33.75;23.65;;;11.10;58.30;;;;;;5114196;27;20050;-71
2021/04/19 04:00:50;;;;;;;29.60;21.63;;;11.10;58.90;;;;;;5113969;27;20070;-71
2021/04/19 04:03:17;;;;;;;30.35;22.27;;;11.20;58.40;;;;;;5113507;28;20020;-71
2021/04/19 04:05:45;;;;;;;30.98;22.63;;;11.20;58.40;;;;;;5132424;27;20054;-71
2021/04/19 04:08:12;;;;;;;27.52;19.40;;;11.20;58.50;;;;;;5111892;28;20026;-71
2021/04/19 04:10:39;;;;;;;29.92;21.25;;;11.20;58.40;;;;;;5112443;28;20035;-70
2021/04/19 04:13:04;;;;;;;28.08;20.27;;;11.20;58.50;;;;;;5134069;27;20050;-71
2021/04/19 04:15:30;;;;;;;29.98;21.20;;;11.20;58.50;;;;;;5134396;27;20024;-71
2021/04/19 04:17:56;;;;;;;30.75;21.25;;;11.20;58.50;;;;;;5134561;27;20047;-71
2021/04/19 04:20:22;;;;;;;29.15;21.25;;;11.20;58.60;;;;;;5131494;27;20114;-70
2021/04/19 04:22:48;;;;;;;24.58;19.08;;;11.20;58.70;;;;;;5134472;27;20023;-71
2021/04/19 04:25:16;;;;;;;29.75;19.35;;;11.20;58.70;;;;;;5134290;27;20524;-70
2021/04/19 04:27:42;;;;;;;24.33;16.77;;;11.20;58.80;;;;;;5134248;27;20380;-71
2021/04/19 04:30:08;;;;;;;29.23;18.25;;;11.20;58.80;;;;;;5122292;27;20028;-71
2021/04/19 04:32:34;;;;;;;28.67;19.80;;;11.30;59.00;;;;;;5113553;27;20114;-71
2021/04/19 04:35:00;;;;;;;25.45;18.27;;;11.30;59.10;;;;;;5126919;27;20159;-71
2021/04/19 04:37:26;;;;;;;23.10;16.25;;;11.30;59.10;;;;;;5132090;27;20019;-71
2021/04/19 04:39:52;;;;;;;23.67;16.88;;;11.30;58.90;;;;;;5134053;27;20016;-71
2021/04/19 04:42:20;;;;;;;24.83;15.90;;;11.30;59.00;;;;;;5131959;27;20030;-71
2021/04/19 04:44:48;;;;;;;24.95;17.20;;;11.30;59.00;;;;;;5133954;27;20019;-71
2021/04/19 04:47:23;;;;;;;25.27;17.38;;;11.30;59.50;;;;;;5133733;27;20023;-71
2021/04/19 04:50:21;;;;;;;26.17;18.15;;;11.30;59.00;;;;;;5133795;27;20019;-71
2021/04/19 04:52:54;;;;;;;28.10;19.45;;;11.40;59.00;;;;;;5110308;28;20044;-71
2021/04/19 04:55:22;;;;;;;27.77;19.52;;;11.30;59.00;;;;;;5134008;27;20023;-71
2021/04/19 04:57:50;;;;;;;29.40;19.88;;;11.30;59.10;;;;;;5121693;27;20095;-71
2021/04/19 05:00:19;;;;;;;28.90;20.50;;;11.30;59.30;;;;;;5131081;28;20384;-71
2021/04/19 05:02:46;;;;;;;25.27;17.77;;;11.30;59.50;;;;;;5133981;27;20514;-71
2021/04/19 05:05:14;;;;;;;30.92;20.70;;;11.20;59.50;;;;;;5133528;27;20049;-71
2021/04/19 05:07:41;;;;;;;31.25;20.05;;;11.20;59.70;;;;;;5116633;27;20027;-71
2021/04/19 05:10:08;;;;;;;28.50;20.50;;;11.20;59.80;;;;;;5113280;28;20019;-71
2021/04/19 05:12:34;;;;;;;26.98;19.58;;;11.10;60.00;;;;;;5113166;28;20038;-71
2021/04/19 05:15:06;;;;;;;28.05;19.02;;;11.10;60.10;;;;;;5121984;28;20035;-71
2021/04/19 05:17:32;;;;;;;27.05;20.33;;;11.10;60.40;;;;;;5127942;27;20480;-71
2021/04/19 05:19:58;;;;;;;27.10;19.38;;;11.10;60.60;;;;;;5133685;27;20027;-71
2021/04/19 05:22:24;;;;;;;28.52;18.27;;;11.10;60.80;;;;;;5132373;28;20019;-71
2021/04/19 05:24:51;;;;;;;26.00;18.75;;;11.10;61.00;;;;;;5133619;27;20376;-71
2021/04/19 05:27:17;;;;;;;28.63;19.63;;;11.10;61.30;;;;;;5132137;27;20016;-71
2021/04/19 05:29:44;;;;;;;28.23;18.95;;;11.10;61.50;;;;;;5133426;28;20024;-71
2021/04/19 05:32:12;;;;;;;21.88;16.83;;;11.10;61.40;;;;;;5113108;28;20024;-71
2021/04/19 05:34:39;;;;;;;28.95;16.20;;;11.10;61.40;;;;;;5122368;28;20016;-71
2021/04/19 05:37:06;;;;;;;21.65;14.98;;;11.20;61.40;;;;;;5121253;27;20104;-71
2021/04/19 05:39:33;;;;;;;23.55;16.30;;;11.20;61.30;;;;;;5112597;28;20463;-71
2021/04/19 05:42:00;;;;;;;25.30;15.35;;;11.20;62.00;;;;;;5111942;28;20031;-71
2021/04/19 05:44:27;;;;;;;24.27;16.15;;;11.30;61.20;;;;;;5114083;28;20019;-71
2021/04/19 05:46:54;;;;;;;23.05;15.40;;;11.40;61.30;;;;;;5131326;27;20034;-71
2021/04/19 05:49:20;;;;;;;23.13;15.52;;;11.40;61.10;;;;;;5137036;27;20027;-71
2021/04/19 05:51:47;;;;;;;21.58;15.02;;;11.50;60.90;;;;;;5136611;27;20066;-71
2021/04/19 05:54:15;;;;;;;23.40;15.85;;;11.50;60.40;;;;;;5136759;27;20023;-71
2021/04/19 05:57:06;;;;;;;24.38;15.50;;;11.50;60.30;;;;;;5135455;27;20027;-71
2021/04/19 05:59:50;;;;;;;23.38;15.65;;;11.60;60.20;;;;;;5134944;27;20034;-71
2021/04/19 06:02:34;;;;;;;23.98;15.38;;;11.60;59.60;;;;;;5137455;27;20072;-71
2021/04/19 06:05:06;;;;;;;26.23;17.10;;;11.70;59.70;;;;;;5132075;27;20512;-71
2021/04/19 06:07:44;;;;;;;20.80;14.95;;;11.70;59.50;;;;;;5116159;28;20425;-71
2021/04/19 06:10:38;;;;;;;24.98;17.05;;;11.70;59.50;;;;;;5114675;28;20045;-71
2021/04/19 06:13:06;;;;;;;29.70;18.88;;;11.70;59.50;;;;;;5142175;27;20038;-71
2021/04/19 06:15:33;;;;;;;24.67;17.92;;;11.70;59.50;;;;;;5135053;27;20055;-71
2021/04/19 06:18:00;;;;;;;26.15;19.00;;;11.70;59.40;;;;;;5136111;27;20026;-71
2021/04/19 06:20:26;;;;;;;25.48;18.25;;;11.70;59.30;;;;;;5136600;27;20015;-71
2021/04/19 06:22:54;;;;;;;25.95;18.52;;;11.70;59.40;;;;;;5117373;27;20024;-71
2021/04/19 06:25:21;;;;;;;23.85;17.77;;;11.70;59.40;;;;;;5116149;27;20441;-71
2021/04/19 06:27:48;;;;;;;22.88;17.67;;;11.70;59.40;;;;;;5115775;28;20024;-71
2021/04/19 06:30:19;;;;;;;27.65;18.95;;;11.70;59.40;;;;;;5120514;27;20076;-71
2021/04/19 06:32:50;;;;;;;23.55;16.65;;;11.80;59.50;;;;;;5136103;27;20031;-71
2021/04/19 06:35:18;;;;;;;24.20;17.05;;;11.90;59.70;;;;;;5136026;27;20031;-71
2021/04/19 06:37:49;;;;;;;22.30;16.70;;;11.90;59.60;;;;;;5125850;27;20015;-71
2021/04/19 06:40:15;;;;;;;30.08;17.80;;;12.00;59.40;;;;;;5136988;27;20041;-71
2021/04/19 06:42:42;;;;;;;24.58;17.88;;;12.10;59.40;;;;;;5135858;27;20043;-71
2021/04/19 06:45:08;;;;;;;22.10;15.98;;;12.20;59.20;;;;;;5137174;27;20095;-71
2021/04/19 06:47:35;;;;;;;21.52;15.82;;;12.20;59.10;;;;;;5131722;27;20023;-71
2021/04/19 06:50:05;;;;;;;21.60;15.60;;;12.40;59.00;;;;;;5134620;27;20423;-71
2021/04/19 06:52:32;;;;;;;27.40;16.95;;;12.50;58.90;;;;;;5132993;27;20031;-71
2021/04/19 06:54:59;;;;;;;17.77;14.32;;;12.50;58.30;;;;;;5131280;27;20189;-71
2021/04/19 06:57:31;;;;;;;22.45;16.20;;;12.60;58.30;;;;;;5119924;27;20069;-71
2021/04/19 06:59:57;;;;;;;18.58;13.82;;;12.70;58.10;;;;;;5129756;27;20016;-71
2021/04/19 07:02:26;;;;;;;20.98;13.98;;;12.90;58.20;;;;;;5147644;27;20023;-71
2021/04/19 07:04:53;;;;;;;20.40;14.75;;;13.00;58.20;;;;;;5135574;27;20023;-71
2021/04/19 07:07:26;;;;;;;20.80;14.65;;;13.10;58.00;;;;;;5116353;27;20075;-71
2021/04/19 07:09:55;;;;;;;19.15;14.27;;;13.40;57.80;;;;;;5115159;28;20066;-71
2021/04/19 07:12:24;;;;;;;18.95;14.30;;;13.50;57.20;;;;;;5128949;27;20034;-71
2021/04/19 07:14:52;;;;;;;22.20;15.30;;;13.70;57.00;;;;;;5135610;27;20099;-71
2021/04/19 07:17:19;;;;;;;20.30;14.75;;;13.80;56.30;;;;;;5135316;27;20496;-71
2021/04/19 07:19:45;;;;;;;19.63;14.68;;;13.90;55.70;;;;;;5135275;27;20029;-71
2021/04/19 07:22:17;;;;;;;19.88;15.13;;;14.10;55.50;;;;;;5135583;27;20499;-71
2021/04/19 07:24:44;;;;;;;19.38;13.65;;;14.20;55.00;;;;;;5135559;27;20034;-71
2021/04/19 07:27:12;;;;;;;18.63;13.77;;;14.30;54.80;;;;;;5135091;27;20476;-72
2021/04/19 07:29:41;;;;;;;22.50;14.95;;;14.40;54.60;;;;;;5130567;27;20058;-72
2021/04/19 07:32:07;;;;;;;20.33;14.88;;;14.50;53.90;;;;;;5135656;27;20050;-71
2021/04/19 07:34:34;;;;;;;19.63;14.68;;;14.60;54.00;;;;;;5132938;27;20035;-72
2021/04/19 07:37:03;;;;;;;17.13;13.57;;;14.60;53.80;;;;;;5132795;27;20038;-72
2021/04/19 07:39:37;;;;;;;20.27;14.25;;;14.70;54.20;;;;;;5123911;27;20023;-71
2021/04/19 07:42:08;;;;;;;19.08;13.63;;;14.90;54.50;;;;;;5134632;27;20361;-71
2021/04/19 07:44:42;;;;;;;22.20;16.27;;;15.00;54.10;;;;;;5114580;28;20034;-72
2021/04/19 07:47:40;;;;;;;25.30;17.80;;;15.10;53.10;;;;;;5132216;27;20062;-71
2021/04/19 07:50:23;;;;;;;21.88;14.57;;;15.10;52.40;;;;;;5114514;28;20085;-72
2021/04/19 07:52:52;;;;;;;21.85;15.15;;;15.20;53.10;;;;;;5113047;28;20042;-72
2021/04/19 07:55:23;;;;;;;24.55;17.48;;;15.30;52.80;;;;;;5114570;27;20507;-71
2021/04/19 07:57:50;;;;;;;20.83;15.70;;;15.30;52.40;;;;;;5119078;27;20027;-72
2021/04/19 08:00:32;;;;;;;19.30;15.43;;;15.40;52.60;;;;;;5133016;27;20023;-72
2021/04/19 08:03:02;;;;;;;22.90;17.55;;;15.40;52.00;;;;;;5119993;27;20103;-71
2021/04/19 08:05:51;;;;;;;20.92;15.45;;;15.40;51.60;;;;;;5131363;27;20031;-71
2021/04/19 08:08:38;;;;;;;21.83;16.05;;;15.50;52.30;;;;;;5122864;27;20030;-72
2021/04/19 08:11:06;;;;;;;24.65;17.80;;;15.60;52.40;;;;;;5116140;27;20102;-72
2021/04/19 08:13:32;;;;;;;26.95;19.45;;;15.70;51.50;;;;;;5132736;27;20473;-72
2021/04/19 08:16:15;;;;;;;25.65;20.23;;;15.80;51.30;;;;;;5132685;27;20054;-72
2021/04/19 08:18:41;;;;;;;35.30;19.80;;;15.80;51.10;;;;;;5121270;27;20019;-72
2021/04/19 08:21:07;;;;;;;26.38;19.63;;;15.90;50.70;;;;;;5113771;28;20564;-72
2021/04/19 08:23:44;;;;;;;26.67;20.35;;;16.00;50.70;;;;;;5113702;28;20030;-72
2021/04/19 08:26:11;;;;;;;26.33;19.73;;;16.00;50.60;;;;;;5132056;27;20036;-72
2021/04/19 08:28:49;;;;;;;28.08;19.20;;;16.10;50.20;;;;;;5121778;27;20045;-72
2021/04/19 08:31:17;;;;;;;25.23;18.90;;;16.10;49.60;;;;;;5120213;27;20476;-72
2021/04/19 08:33:44;;;;;;;26.35;19.55;;;16.10;49.70;;;;;;5113645;27;20141;-72
2021/04/19 08:36:14;;;;;;;25.17;19.42;;;16.20;49.50;;;;;;5131905;27;20439;-71
2021/04/19 08:38:41;;;;;;;26.15;19.73;;;16.20;49.70;;;;;;5121247;27;20015;-72
2021/04/19 08:41:10;;;;;;;26.52;19.55;;;16.10;49.70;;;;;;5122996;27;20019;-72
2021/04/19 08:43:38;;;;;;;25.88;19.60;;;16.10;49.80;;;;;;5133535;27;20027;-70
2021/04/19 08:46:05;;;;;;;25.73;20.30;;;16.10;50.00;;;;;;5121450;27;20125;-69
2021/04/19 08:48:31;;;;;;;24.85;19.15;;;16.00;49.90;;;;;;5125235;27;20027;-69
2021/04/19 08:51:02;;;;;;;25.65;18.88;;;15.90;50.20;;;;;;5133740;27;20050;-71
2021/04/19 08:53:28;;;;;;;25.50;19.13;;;15.80;50.20;;;;;;5133771;27;20053;-72
2021/04/19 08:55:55;;;;;;;29.67;20.15;;;15.70;50.30;;;;;;5133809;27;20495;-72
2021/04/19 08:58:21;;;;;;;28.10;22.27;;;15.60;50.70;;;;;;5133924;27;20023;-72
2021/04/19 09:00:50;;;;;;;27.30;20.63;;;15.50;51.10;;;;;;5132578;28;20758;-70
2021/04/19 09:03:18;;;;;;;25.10;19.30;;;15.30;51.70;;;;;;5127159;27;20103;-70
2021/04/19 09:05:44;;;;;;;27.30;20.42;;;15.20;52.60;;;;;;5133485;27;20037;-71
2021/04/19 09:08:13;;;;;;;32.70;22.90;;;15.00;54.00;;;;;;5133597;27;20031;-73
2021/04/19 09:10:52;;;;;;;33.95;23.73;;;14.90;53.80;;;;;;5133631;27;20026;-72
2021/04/19 09:13:26;;;;;;;31.25;22.35;;;14.80;54.20;;;;;;5132454;28;20023;-71
2021/04/19 09:15:53;;;;;;;32.63;24.65;;;14.70;54.90;;;;;;5133501;27;20056;-72
2021/04/19 09:18:21;;;;;;;33.05;24.30;;;14.60;54.70;;;;;;5134084;27;20031;-72
2021/04/19 09:20:53;;;;;;;29.55;22.25;;;14.50;54.90;;;;;;5137865;27;20012;-75
2021/04/19 09:23:27;;;;;;;28.30;20.90;;;14.40;55.30;;;;;;5136185;27;20031;-75
2021/04/19 09:25:54;;;;;;;33.97;22.13;;;14.40;56.00;;;;;;5125089;27;20377;-75
2021/04/19 09:28:41;;;;;;;29.48;22.30;;;14.30;56.50;;;;;;5137794;27;20061;-74
2021/04/19 09:31:08;;;;;;;30.25;20.50;;;14.30;55.90;;;;;;5137484;27;20031;-74
2021/04/19 09:33:35;;;;;;;31.00;22.05;;;14.20;56.10;;;;;;5136396;27;20027;-75
2021/04/19 09:36:01;;;;;;;29.95;21.70;;;14.20;56.50;;;;;;5128704;27;20045;-76
2021/04/19 09:38:39;;;;;;;31.48;22.45;;;14.20;56.80;;;;;;5131929;27;20031;-76
2021/04/19 09:41:13;;;;;;;29.30;21.85;;;14.20;57.60;;;;;;5137625;27;20053;-75
2021/04/19 09:43:59;;;;;;;28.15;18.92;;;14.20;57.80;;;;;;5137489;27;20071;-77
2021/04/19 09:46:31;;;;;;;22.75;16.80;;;14.20;57.80;;;;;;5137186;27;20019;-76
2021/04/19 09:49:03;;;;;;;18.05;13.38;;;14.30;57.60;;;;;;5124765;27;20073;-79
2021/04/19 09:51:43;;;;;;;16.17;11.65;;;14.40;57.90;;;;;;5137137;27;20519;-76
2021/04/19 09:54:14;;;;;;;14.35;10.40;;;14.60;58.40;;;;;;5137266;27;20023;-75
2021/04/19 09:56:50;;;;;;;9.98;8.10;;;14.70;58.20;;;;;;5137100;27;20024;-75
2021/04/19 09:59:23;;;;;;;9.60;7.13;;;14.90;58.20;;;;;;5130066;27;20016;-74
2021/04/19 10:01:51;;;;;;;13.68;7.95;;;15.10;56.90;;;;;;5121399;27;20055;-73
2021/04/19 10:04:18;;;;;;;9.43;7.20;;;15.20;55.90;;;;;;5136667;27;20027;-74
2021/04/19 10:07:06;;;;;;;8.70;6.03;;;15.30;56.60;;;;;;5136903;27;20015;-76
2021/04/19 10:09:39;;;;;;;10.60;7.20;;;15.50;57.00;;;;;;5136624;27;20535;-74
2021/04/19 10:12:07;;;;;;;11.10;6.07;;;15.70;56.40;;;;;;5117151;27;20058;-75
2021/04/19 10:14:35;;;;;;;9.88;6.35;;;16.00;56.00;;;;;;5116470;28;20377;-74
2021/04/19 10:17:12;;;;;;;11.15;5.57;;;16.10;55.00;;;;;;5116424;28;20492;-74
2021/04/19 10:19:38;;;;;;;7.32;5.72;;;16.30;54.80;;;;;;5116440;28;20024;-74
2021/04/19 10:22:10;;;;;;;7.53;5.68;;;16.50;55.30;;;;;;5116394;28;20015;-74
2021/04/19 10:24:52;;;;;;;9.60;5.78;;;16.60;53.50;;;;;;5116379;28;20020;-74
2021/04/19 10:27:25;;;;;;;9.05;4.80;;;16.80;54.10;;;;;;5114966;28;20031;-74
2021/04/19 10:29:53;;;;;;;8.27;6.32;;;17.00;54.70;;;;;;5115439;28;20016;-74
2021/04/19 10:32:30;;;;;;;9.25;6.30;;;17.10;52.40;;;;;;5124986;27;20106;-73
2021/04/19 10:34:56;;;;;;;9.95;6.88;;;17.30;51.70;;;;;;5129570;27;20403;-73
2021/04/19 10:37:22;;;;;;;9.30;7.10;;;17.40;50.50;;;;;;5131626;27;20051;-74
2021/04/19 10:39:48;;;;;;;10.20;7.28;;;17.50;50.70;;;;;;5115863;28;20020;-74
2021/04/19 10:42:23;;;;;;;8.98;7.10;;;17.60;51.60;;;;;;5115688;28;20085;-74
2021/04/19 10:44:50;;;;;;;8.98;6.75;;;17.70;50.50;;;;;;5115726;28;20061;-73
2021/04/19 10:47:29;;;;;;;11.13;7.50;;;17.80;49.60;;;;;;5131681;27;20431;-73
2021/04/19 10:49:55;;;;;;;11.63;7.38;;;17.80;48.70;;;;;;5115657;28;20427;-74
2021/04/19 10:52:21;;;;;;;7.85;5.82;;;17.80;47.50;;;;;;5115809;28;20020;-73
2021/04/19 10:54:48;;;;;;;9.30;5.20;;;17.70;47.70;;;;;;5131435;27;20111;-73
2021/04/19 10:57:23;;;;;;;7.25;6.10;;;17.70;48.30;;;;;;5131508;27;20469;-74
2021/04/19 10:59:50;;;;;;;9.15;7.35;;;17.60;47.70;;;;;;5115511;28;20055;-73
2021/04/19 11:02:22;;;;;;;9.52;6.03;;;17.50;47.00;;;;;;5123727;27;20055;-73
2021/04/19 11:04:49;;;;;;;8.23;6.28;;;17.30;46.90;;;;;;5134822;27;20388;-73
2021/04/19 11:07:36;;;;;;;10.52;7.97;;;17.20;47.50;;;;;;5135945;27;20657;-73
2021/04/19 11:10:28;;;;;;;9.52;7.38;;;17.00;47.60;;;;;;5135861;27;20107;-73
2021/04/19 11:13:09;;;;;;;10.68;7.80;;;16.90;48.40;;;;;;5131910;27;20027;-74
2021/04/19 11:15:35;;;;;;;8.98;7.28;;;16.80;48.00;;;;;;5135077;27;20076;-75
2021/04/19 11:18:18;;;;;;;12.60;7.40;;;16.80;48.40;;;;;;5138450;27;20023;-72
2021/04/19 11:20:44;;;;;;;10.35;7.40;;;16.80;48.70;;;;;;5135300;27;20015;-73
2021/04/19 11:23:40;;;;;;;9.18;6.15;;;16.90;48.40;;;;;;5139425;27;20050;-73
2021/04/19 11:26:11;;;;;;;8.05;6.47;;;17.00;49.10;;;;;;5124612;27;20035;-73
2021/04/19 11:28:44;;;;;;;11.38;7.18;;;17.20;49.50;;;;;;5115232;27;20031;-73
2021/04/19 11:31:16;;;;;;;10.70;7.55;;;17.30;48.50;;;;;;5135293;27;20027;-73
2021/04/19 11:33:43;;;;;;;9.75;7.65;;;17.50;48.10;;;;;;5134775;27;20049;-73
2021/04/19 11:36:11;;;;;;;7.95;6.50;;;17.50;47.30;;;;;;5134957;27;20058;-73
2021/04/19 11:38:40;;;;;;;9.20;6.38;;;17.60;47.40;;;;;;5133803;27;20024;-73
2021/04/19 11:41:08;;;;;;;9.90;6.50;;;17.70;47.60;;;;;;5134449;27;20015;-73
2021/04/19 11:43:48;;;;;;;9.60;6.82;;;17.80;47.90;;;;;;5134147;27;20029;-75
2021/04/19 11:46:16;;;;;;;9.82;6.88;;;18.00;47.10;;;;;;5132097;27;20095;-73
2021/04/19 11:48:44;;;;;;;9.45;6.90;;;18.10;46.40;;;;;;5133223;27;20030;-73
2021/04/19 11:51:14;;;;;;;8.20;6.45;;;18.10;46.10;;;;;;5134458;27;20070;-75
2021/04/19 11:53:42;;;;;;;9.60;6.82;;;18.30;46.40;;;;;;5133371;27;20030;-75
2021/04/19 11:56:09;;;;;;;11.70;7.13;;;18.30;45.80;;;;;;5132576;27;20381;-72
2021/04/19 11:58:37;;;;;;;10.05;6.68;;;18.50;45.90;;;;;;5129408;27;20468;-74
2021/04/19 12:01:05;;;;;;;8.70;6.30;;;18.60;45.90;;;;;;5134326;27;20046;-74
2021/04/19 12:03:31;;;;;;;8.70;5.70;;;18.70;45.20;;;;;;5133103;27;20434;-75
2021/04/19 12:05:57;;;;;;;9.55;6.53;;;18.80;45.70;;;;;;5131069;27;20019;-72
2021/04/19 12:08:23;;;;;;;8.15;6.03;;;19.00;45.10;;;;;;5132167;27;20030;-73
2021/04/19 12:10:49;;;;;;;6.88;5.60;;;19.10;44.60;;;;;;5134492;27;20109;-73
2021/04/19 12:13:15;;;;;;;9.68;7.20;;;19.20;44.40;;;;;;5125822;27;20024;-74
2021/04/19 12:15:42;;;;;;;9.68;6.70;;;19.30;43.40;;;;;;5127270;27;20459;-72
2021/04/19 12:18:09;;;;;;;9.05;7.68;;;19.40;42.90;;;;;;5133967;27;20027;-72
2021/04/19 12:20:36;;;;;;;8.55;6.28;;;19.30;42.70;;;;;;5134140;27;20076;-72
2021/04/19 12:23:02;;;;;;;8.30;6.80;;;19.30;43.00;;;;;;5132104;27;20467;-73
2021/04/19 12:25:28;;;;;;;9.68;6.80;;;19.20;43.40;;;;;;5135983;27;20106;-75
2021/04/19 12:27:54;;;;;;;8.82;6.85;;;19.20;42.90;;;;;;5154647;27;20054;-72
2021/04/19 12:30:20;;;;;;;8.82;6.70;;;19.00;42.70;;;;;;5153338;27;20395;-72
2021/04/19 12:32:46;;;;;;;10.93;7.13;;;18.90;43.10;;;;;;5139917;27;20036;-72
2021/04/19 12:35:12;;;;;;;10.15;8.00;;;18.80;43.30;;;;;;5133648;27;20027;-73
2021/04/19 12:37:38;;;;;;;8.77;7.22;;;18.70;43.60;;;;;;5154455;27;20019;-73
2021/04/19 12:40:05;;;;;;;10.05;7.88;;;18.50;44.50;;;;;;5154707;27;20015;-75
2021/04/19 12:42:30;;;;;;;10.05;7.70;;;18.30;44.50;;;;;;5154540;27;20018;-75
2021/04/19 12:44:56;;;;;;;14.00;7.05;;;18.00;44.70;;;;;;5153601;27;20048;-73